Time;durP1;ratioP1;P1;durP2;ratioP2;P2;SDS_P1;SDS_P2;PMS_P1;PMS_P2;Temp;Humidity;BMP_temperature;BMP_pressure;BME280_temperature;BME280_humidity;BME280_pressure;Samples;Min_cycle;Max_cycle;Signal;HPM_P1;HPM_P2
2022/06/07 00:00:15;;;;;;;4.22;3.08;;;;;;;12.36;100.00;100614.63;682688;28;1274;-45
2022/06/07 00:00:36;;;;;;;4.90;3.10;;;;;;;12.38;100.00;100612.00;682304;28;1390;-45
2022/06/07 00:00:56;;;;;;;4.78;3.17;;;;;;;12.38;100.00;100620.72;681442;28;1294;-44
2022/06/07 00:01:17;;;;;;;5.10;2.90;;;;;;;12.40;100.00;100620.72;680421;28;4603;-44
2022/06/07 00:01:38;;;;;;;5.63;2.88;;;;;;;12.41;100.00;100614.59;682531;28;1433;-46
2022/06/07 00:01:58;;;;;;;4.73;3.10;;;;;;;12.38;100.00;100622.50;681615;28;1724;-45
2022/06/07 00:02:25;;;;;;;4.60;2.97;;;;;;;12.34;100.00;100616.41;681882;28;1409;-46
2022/06/07 00:02:45;;;;;;;4.43;3.00;;;;;;;12.29;100.00;100614.75;681962;28;1037;-44
2022/06/07 00:03:06;;;;;;;4.23;3.10;;;;;;;12.28;100.00;100613.88;681300;28;1124;-44
2022/06/07 00:03:26;;;;;;;5.43;3.10;;;;;;;12.26;100.00;100613.88;682664;28;1278;-45
2022/06/07 00:03:46;;;;;;;4.93;3.10;;;;;;;12.27;100.00;100617.38;682351;28;1104;-45
2022/06/07 00:04:07;;;;;;;8.15;3.20;;;;;;;12.29;100.00;100615.59;682318;28;1591;-45
2022/06/07 00:04:27;;;;;;;4.93;2.90;;;;;;;12.34;100.00;100615.56;681636;28;4458;-44
2022/06/07 00:04:47;;;;;;;4.97;3.00;;;;;;;12.40;100.00;100618.09;682975;28;1228;-44
2022/06/07 00:05:08;;;;;;;4.70;3.15;;;;;;;12.40;100.00;100612.84;681737;28;1191;-45
2022/06/07 00:05:29;;;;;;;6.37;3.10;;;;;;;12.38;100.00;100617.25;679519;28;1419;-44
2022/06/07 00:05:49;;;;;;;6.32;3.30;;;;;;;12.37;100.00;100615.50;681725;28;1265;-44
2022/06/07 00:06:10;;;;;;;4.22;3.03;;;;;;;12.39;100.00;100614.59;684686;28;1236;-45
2022/06/07 00:06:31;;;;;;;4.00;2.83;;;;;;;12.49;100.00;100612.72;683915;28;1347;-44
2022/06/07 00:06:51;;;;;;;4.57;2.70;;;;;;;12.51;100.00;100618.81;683302;28;1157;-45
2022/06/07 00:07:11;;;;;;;4.97;2.90;;;;;;;12.51;100.00;100616.19;680965;28;4521;-44
2022/06/07 00:07:32;;;;;;;4.40;2.90;;;;;;;12.50;100.00;100614.47;683149;28;1767;-45
2022/06/07 00:07:54;;;;;;;4.60;2.97;;;;;;;12.53;100.00;100614.41;681954;28;1057;-44
2022/06/07 00:08:16;;;;;;;4.20;2.83;;;;;;;12.55;100.00;100604.75;682517;28;1337;-46
2022/06/07 00:08:36;;;;;;;4.45;2.55;;;;;;;12.54;100.00;100613.50;682314;28;1366;-45
2022/06/07 00:08:57;;;;;;;6.00;2.70;;;;;;;12.51;100.00;100605.69;681511;28;1421;-45
2022/06/07 00:09:17;;;;;;;5.50;2.78;;;;;;;12.53;100.00;100608.28;681013;28;1191;-44
2022/06/07 00:09:38;;;;;;;5.60;2.83;;;;;;;12.56;100.00;100611.75;683816;28;1484;-46
2022/06/07 00:09:58;;;;;;;4.57;2.77;;;;;;;12.52;100.00;100615.31;680795;28;1370;-44
2022/06/07 00:10:18;;;;;;;5.50;2.70;;;;;;;12.50;100.00;100614.47;681449;28;5380;-44
2022/06/07 00:10:39;;;;;;;4.80;2.80;;;;;;;12.49;100.00;100612.72;682769;28;1065;-44
2022/06/07 00:10:59;;;;;;;6.47;3.00;;;;;;;12.48;100.00;100608.38;681886;28;1225;-45
2022/06/07 00:11:21;;;;;;;5.60;2.93;;;;;;;12.54;100.00;100615.28;680630;28;1163;-46
2022/06/07 00:11:41;;;;;;;4.50;2.70;;;;;;;12.57;100.00;100609.97;680655;28;1148;-44
2022/06/07 00:12:02;;;;;;;4.47;2.80;;;;;;;12.49;100.00;100610.09;681144;28;1349;-45
2022/06/07 00:12:23;;;;;;;5.05;2.83;;;;;;;12.43;100.00;100612.78;681140;28;1294;-44
2022/06/07 00:12:43;;;;;;;4.60;2.80;;;;;;;12.44;100.00;100611.91;682291;28;1351;-44
2022/06/07 00:13:04;;;;;;;3.97;2.67;;;;;;;12.47;100.00;100605.75;681583;28;1311;-44
2022/06/07 00:13:25;;;;;;;4.40;2.80;;;;;;;12.47;100.00;100608.38;681185;28;5499;-44
2022/06/07 00:13:46;;;;;;;5.00;2.90;;;;;;;12.48;100.00;100610.13;682581;28;1154;-46
2022/06/07 00:14:07;;;;;;;4.72;2.85;;;;;;;12.51;100.00;100607.47;683512;28;1187;-45
2022/06/07 00:14:28;;;;;;;4.70;2.90;;;;;;;12.51;100.00;100612.72;680990;28;1093;-46
2022/06/07 00:14:49;;;;;;;4.18;2.90;;;;;;;12.54;100.00;100613.50;681759;28;1275;-44
2022/06/07 00:15:09;;;;;;;4.03;2.60;;;;;;;12.54;100.00;100613.50;680983;28;1350;-45
2022/06/07 00:15:30;;;;;;;4.80;2.80;;;;;;;12.47;100.00;100606.63;681828;28;1116;-45
2022/06/07 00:15:50;;;;;;;4.60;3.00;;;;;;;12.39;100.00;100611.09;682569;28;1384;-44
2022/06/07 00:16:11;;;;;;;4.57;2.93;;;;;;;12.36;100.00;100608.53;681702;28;1345;-46
2022/06/07 00:16:31;;;;;;;4.57;3.10;;;;;;;12.29;100.00;100606.88;678634;28;4851;-46
2022/06/07 00:16:52;;;;;;;5.07;3.10;;;;;;;12.23;100.00;100607.81;680967;28;3812;-46
2022/06/07 00:17:12;;;;;;;5.00;3.10;;;;;;;12.24;100.00;100610.41;682331;28;1239;-44
2022/06/07 00:17:33;;;;;;;5.37;3.20;;;;;;;12.19;100.00;100606.97;682299;28;1970;-45
2022/06/07 00:17:53;;;;;;;5.32;3.30;;;;;;;12.14;100.00;100615.78;681587;28;1219;-47
2022/06/07 00:18:14;;;;;;;4.87;3.10;;;;;;;12.17;100.00;100613.13;682642;28;1188;-45
2022/06/07 00:18:34;;;;;;;6.28;3.08;;;;;;;12.18;100.00;100609.63;681806;28;1330;-44
2022/06/07 00:18:55;;;;;;;6.20;2.93;;;;;;;12.20;100.00;100600.00;682418;28;1259;-46
2022/06/07 00:19:15;;;;;;;5.13;3.00;;;;;;;12.18;100.00;100605.25;681534;28;4619;-47
2022/06/07 00:19:35;;;;;;;5.57;3.13;;;;;;;12.17;100.00;100608.78;681943;28;1233;-45
2022/06/07 00:19:56;;;;;;;5.55;3.20;;;;;;;12.17;100.00;100606.16;681593;28;1250;-44
2022/06/07 00:20:16;;;;;;;5.97;3.10;;;;;;;12.19;100.00;100611.38;682036;28;1266;-45
2022/06/07 00:20:39;;;;;;;6.35;3.22;;;;;;;12.19;100.00;100612.22;681784;28;1462;-45
2022/06/07 00:21:01;;;;;;;4.97;3.10;;;;;;;12.19;100.00;100606.97;681944;28;1219;-44
2022/06/07 00:21:21;;;;;;;6.10;3.13;;;;;;;12.17;100.00;100605.25;681418;28;1121;-44
2022/06/07 00:21:41;;;;;;;6.47;3.40;;;;;;;12.18;100.00;100609.63;681300;28;1530;-44
2022/06/07 00:22:03;;;;;;;5.73;3.00;;;;;;;12.21;100.00;100609.59;684399;28;1064;-44
2022/06/07 00:22:23;;;;;;;5.05;2.95;;;;;;;12.23;100.00;100610.44;683203;28;4448;-45
2022/06/07 00:22:45;;;;;;;5.77;3.03;;;;;;;12.27;100.00;100609.53;682428;28;1215;-47
2022/06/07 00:23:10;;;;;;;5.25;2.97;;;;;;;12.31;100.00;100610.34;682695;28;993;-45
2022/06/07 00:23:32;;;;;;;4.68;2.95;;;;;;;12.23;100.00;100602.59;681263;28;1275;-43
2022/06/07 00:23:52;;;;;;;6.03;3.33;;;;;;;12.22;100.00;100609.56;682142;28;1304;-47
2022/06/07 00:24:13;;;;;;;5.90;3.30;;;;;;;12.23;100.00;100603.44;681872;28;1264;-45
2022/06/07 00:24:34;;;;;;;4.60;3.20;;;;;;;12.24;100.00;100607.81;681578;28;1374;-43
2022/06/07 00:24:55;;;;;;;5.25;3.15;;;;;;;12.25;100.00;100606.94;681127;28;1324;-44
2022/06/07 00:25:16;;;;;;;4.80;3.25;;;;;;;12.22;100.00;100611.31;679967;28;4416;-44
2022/06/07 00:25:37;;;;;;;7.35;3.67;;;;;;;12.18;100.00;100610.47;680803;28;1276;-47
2022/06/07 00:25:58;;;;;;;6.95;3.15;;;;;;;12.21;100.00;100605.22;681387;28;1559;-44
2022/06/07 00:26:18;;;;;;;5.18;3.00;;;;;;;12.20;100.00;100603.47;681253;28;1450;-45
2022/06/07 00:26:41;;;;;;;4.88;3.13;;;;;;;12.20;100.00;100603.47;682350;28;1477;-44
2022/06/07 00:27:02;;;;;;;5.10;3.20;;;;;;;12.19;100.00;100606.97;681858;28;1175;-45
2022/06/07 00:27:22;;;;;;;4.53;3.00;;;;;;;12.19;100.00;100606.97;681450;28;1403;-44
2022/06/07 00:27:43;;;;;;;4.57;2.97;;;;;;;12.20;100.00;100606.09;679510;28;1373;-44
2022/06/07 00:28:03;;;;;;;5.90;3.00;;;;;;;12.17;100.00;100608.78;678881;28;1363;-45
2022/06/07 00:28:25;;;;;;;5.43;3.20;;;;;;;12.12;100.00;100607.94;678995;28;4448;-46
2022/06/07 00:28:46;;;;;;;4.90;3.05;;;;;;;12.02;100.00;100603.72;681941;28;1308;-44
2022/06/07 00:29:07;;;;;;;5.00;2.90;;;;;;;12.01;100.00;100599.34;676732;29;1474;-45
2022/06/07 00:29:28;;;;;;;5.60;3.08;;;;;;;12.00;100.00;100601.09;676648;29;1394;-46
2022/06/07 00:29:48;;;;;;;4.80;3.00;;;;;;;12.04;100.00;100596.69;677301;29;1236;-46
2022/06/07 00:30:11;;;;;;;4.93;2.97;;;;;;;12.09;100.00;100600.13;677472;29;1466;-44
2022/06/07 00:30:32;;;;;;;5.13;3.08;;;;;;;12.09;100.00;100602.75;676153;29;1241;-45
2022/06/07 00:30:53;;;;;;;5.25;3.10;;;;;;;12.09;100.00;100606.22;678148;28;1311;-44
2022/06/07 00:31:13;;;;;;;5.18;3.17;;;;;;;12.09;100.00;100605.38;678968;28;4538;-46
2022/06/07 00:31:39;;;;;;;5.68;3.15;;;;;;;12.09;100.00;100603.59;676310;29;1506;-44
2022/06/07 00:32:01;;;;;;;4.97;3.20;;;;;;;12.08;100.00;100601.00;676996;29;1272;-44
2022/06/07 00:32:22;;;;;;;4.60;3.00;;;;;;;12.09;100.00;100605.38;679648;28;1257;-44
2022/06/07 00:32:44;;;;;;;5.30;3.00;;;;;;;12.06;100.00;100600.19;680187;28;1236;-44
2022/06/07 00:33:05;;;;;;;5.40;3.17;;;;;;;12.01;100.00;100604.59;679350;28;1204;-45
2022/06/07 00:33:26;;;;;;;5.20;3.30;;;;;;;11.95;100.00;100596.78;677368;29;1268;-44
2022/06/07 00:33:46;;;;;;;6.57;3.30;;;;;;;11.88;100.00;100604.69;677276;29;1292;-44
2022/06/07 00:34:07;;;;;;;5.47;3.07;;;;;;;11.88;100.00;100596.84;678466;29;1315;-44
2022/06/07 00:34:28;;;;;;;5.23;3.20;;;;;;;11.88;100.00;100606.44;677740;28;4438;-45
2022/06/07 00:34:49;;;;;;;5.90;3.10;;;;;;;11.86;100.00;100603.84;678714;29;1425;-46
2022/06/07 00:35:10;;;;;;;4.30;2.80;;;;;;;11.90;100.00;100605.53;677808;29;1330;-47
2022/06/07 00:35:31;;;;;;;4.80;3.08;;;;;;;11.90;100.00;100605.53;680282;28;1302;-45
2022/06/07 00:35:52;;;;;;;5.35;3.25;;;;;;;11.88;100.00;100596.84;683134;28;1537;-43
2022/06/07 00:36:12;;;;;;;5.47;3.10;;;;;;;11.89;100.00;100603.81;680051;28;1243;-45
2022/06/07 00:36:34;;;;;;;5.20;3.20;;;;;;;11.90;100.00;100605.53;679216;28;1398;-43
2022/06/07 00:36:55;;;;;;;5.18;3.30;;;;;;;11.81;100.00;100597.81;679137;28;1362;-44
2022/06/07 00:37:15;;;;;;;5.43;3.28;;;;;;;11.79;100.00;100599.56;677457;29;4920;-44
2022/06/07 00:37:36;;;;;;;5.00;3.30;;;;;;;11.87;100.00;100600.34;678971;29;1934;-44
2022/06/07 00:37:57;;;;;;;4.78;3.15;;;;;;;11.91;100.00;100598.56;677373;29;1248;-45
2022/06/07 00:38:17;;;;;;;5.35;3.10;;;;;;;11.84;100.00;100599.53;678763;29;1398;-45
2022/06/07 00:38:38;;;;;;;8.13;3.43;;;;;;;11.78;100.00;100599.56;678351;28;1447;-45
2022/06/07 00:38:58;;;;;;;7.15;3.40;;;;;;;11.75;100.00;100603.09;678701;28;1462;-46
2022/06/07 00:39:19;;;;;;;7.13;3.40;;;;;;;11.72;100.00;100601.38;682334;28;4974;-45
2022/06/07 00:39:39;;;;;;;6.70;3.38;;;;;;;11.70;100.00;100599.63;681855;28;1438;-43
2022/06/07 00:40:00;;;;;;;5.53;3.30;;;;;;;11.69;100.00;100605.78;680473;28;1212;-47
2022/06/07 00:40:20;;;;;;;5.87;3.50;;;;;;;11.70;100.00;100607.50;683837;28;4366;-44
2022/06/07 00:40:42;;;;;;;5.20;3.47;;;;;;;11.74;100.00;100599.63;680711;28;1418;-45
2022/06/07 00:41:04;;;;;;;4.30;3.10;;;;;;;11.79;100.00;100602.16;682009;28;1305;-46
2022/06/07 00:41:24;;;;;;;6.25;3.05;;;;;;;11.81;100.00;100597.81;681479;28;1299;-45
2022/06/07 00:41:44;;;;;;;6.53;3.23;;;;;;;11.81;100.00;100603.03;681015;28;1235;-46
2022/06/07 00:42:06;;;;;;;4.88;3.22;;;;;;;11.85;100.00;100601.22;679442;28;1274;-44
2022/06/07 00:42:26;;;;;;;5.47;3.15;;;;;;;11.88;100.00;100601.19;677455;29;1252;-45
2022/06/07 00:42:47;;;;;;;5.05;3.10;;;;;;;11.82;100.00;100602.13;682376;28;1271;-45
2022/06/07 00:43:07;;;;;;;5.70;3.10;;;;;;;11.79;100.00;100601.31;682038;28;1365;-45
2022/06/07 00:43:27;;;;;;;4.85;3.10;;;;;;;11.80;100.00;100603.06;678569;29;4399;-46
2022/06/07 00:44:20;;;;;;;5.07;3.13;;;;;;;11.83;100.00;100603.03;676918;29;1283;-44
2022/06/07 00:44:44;;;;;;;5.28;3.20;;;;;;;11.83;100.00;100597.78;678324;28;1441;-47
2022/06/07 00:45:05;;;;;;;5.38;3.25;;;;;;;11.78;100.00;100600.44;676587;29;1279;-45
2022/06/07 00:45:26;;;;;;;5.25;3.08;;;;;;;11.80;100.00;100601.28;680777;28;963;-47
2022/06/07 00:45:46;;;;;;;6.50;3.20;;;;;;;11.80;100.00;100598.69;681153;28;1258;-43
2022/06/07 00:46:10;;;;;;;5.60;3.20;;;;;;;11.78;100.00;100595.19;680724;28;1247;-45
2022/06/07 00:46:30;;;;;;;5.65;3.28;;;;;;;11.83;100.00;100600.41;681053;28;4498;-45
2022/06/07 00:46:58;;;;;;;5.30;3.30;;;;;;;11.85;100.00;100593.38;682782;28;1334;-45
2022/06/07 00:47:23;;;;;;;4.57;3.30;;;;;;;11.84;100.00;100597.75;683638;28;1243;-44
2022/06/07 00:47:43;;;;;;;5.10;3.22;;;;;;;11.87;100.00;100594.25;684300;28;1169;-46
2022/06/07 00:48:05;;;;;;;5.80;3.00;;;;;;;11.87;100.00;100594.25;681461;28;1310;-44
2022/06/07 00:48:27;;;;;;;4.68;3.00;;;;;;;11.89;100.00;100592.47;681800;28;1315;-47
2022/06/07 00:48:47;;;;;;;4.97;2.90;;;;;;;11.83;100.00;100600.41;678254;29;1489;-45
2022/06/07 00:49:08;;;;;;;5.65;3.20;;;;;;;11.80;100.00;100596.06;678255;29;1272;-44
2022/06/07 00:49:32;;;;;;;5.70;3.30;;;;;;;11.79;100.00;100599.56;679008;28;4320;-45
2022/06/07 00:50:08;;;;;;;5.38;3.40;;;;;;;11.71;100.00;100593.53;679528;28;1374;-43
2022/06/07 00:50:41;;;;;;;6.55;3.45;;;;;;;11.74;100.00;100601.34;681307;28;1358;-44
2022/06/07 00:51:10;;;;;;;5.43;3.33;;;;;;;11.72;100.00;100600.50;683511;28;1286;-44
2022/06/07 00:51:30;;;;;;;6.88;3.30;;;;;;;11.70;100.00;100595.28;680702;28;1252;-44
2022/06/07 00:51:51;;;;;;;5.93;3.50;;;;;;;11.71;100.00;100597.03;679280;28;1436;-44
2022/06/07 00:52:15;;;;;;;6.10;3.40;;;;;;;11.76;100.00;100591.75;678067;29;4361;-45
2022/06/07 00:52:36;;;;;;;4.90;3.20;;;;;;;11.81;100.00;100596.91;678076;28;1597;-45
2022/06/07 00:52:59;;;;;;;4.38;3.20;;;;;;;11.86;100.00;100593.34;678475;28;1411;-44
2022/06/07 00:53:32;;;;;;;6.80;3.42;;;;;;;11.89;100.00;100601.19;675738;29;1355;-45
2022/06/07 00:54:05;;;;;;;5.10;3.22;;;;;;;11.89;100.00;100595.06;677185;28;1485;-46
2022/06/07 00:54:30;;;;;;;6.22;3.30;;;;;;;11.86;100.00;100601.22;680525;28;1278;-46
2022/06/07 00:54:57;;;;;;;4.70;3.10;;;;;;;11.89;100.00;100600.31;681227;28;1327;-45
2022/06/07 00:55:35;;;;;;;4.95;2.90;;;;;;;11.90;100.00;100588.97;680606;28;5090;-45
2022/06/07 00:56:06;;;;;;;5.10;3.00;;;;;;;11.90;100.00;100595.06;681218;28;1515;-43
2022/06/07 00:56:26;;;;;;;6.43;3.40;;;;;;;11.82;100.00;100596.91;676683;29;1308;-44
2022/06/07 00:56:47;;;;;;;5.53;3.20;;;;;;;11.84;100.00;100599.53;678602;28;1343;-43
2022/06/07 00:57:09;;;;;;;5.68;3.55;;;;;;;11.82;100.00;100601.28;678843;29;1240;-44
2022/06/07 00:57:32;;;;;;;5.25;3.50;;;;;;;11.72;100.00;100596.13;676191;29;1918;-45
2022/06/07 00:57:55;;;;;;;6.20;3.65;;;;;;;11.72;100.00;100590.03;679011;29;1446;-45
2022/06/07 00:58:30;;;;;;;5.90;3.40;;;;;;;11.69;100.00;100595.31;676421;29;4269;-46
2022/06/07 00:58:51;;;;;;;5.65;3.30;;;;;;;11.71;100.00;100588.28;676796;29;1460;-43
2022/06/07 00:59:12;;;;;;;6.23;3.40;;;;;;;11.72;100.00;100597.88;676379;29;1288;-44
2022/06/07 00:59:32;;;;;;;5.72;3.30;;;;;;;11.73;100.00;100595.25;676721;29;1228;-44
2022/06/07 00:59:54;;;;;;;4.20;3.20;;;;;;;11.71;100.00;100597.03;676370;29;1414;-44
2022/06/07 01:00:17;;;;;;;5.28;3.20;;;;;;;11.69;100.00;100605.78;676668;29;1587;-44
2022/06/07 01:00:40;;;;;;;5.50;3.60;;;;;;;11.75;100.00;100597.84;677599;29;2240;-46
2022/06/07 01:01:03;;;;;;;5.00;3.20;;;;;;;11.76;100.00;100599.59;674898;29;1499;-44
2022/06/07 01:01:23;;;;;;;5.13;3.22;;;;;;;11.72;100.00;100601.38;677187;29;4372;-44
2022/06/07 01:01:44;;;;;;;5.47;3.35;;;;;;;11.66;100.00;100604.06;676824;29;1264;-44
2022/06/07 01:02:06;;;;;;;6.43;3.50;;;;;;;11.66;100.00;100598.81;676353;29;1401;-44
2022/06/07 01:02:28;;;;;;;5.20;3.28;;;;;;;11.70;100.00;100599.63;675141;29;1301;-46
2022/06/07 01:02:49;;;;;;;4.95;3.28;;;;;;;11.71;100.00;100598.75;677187;28;1253;-46
2022/06/07 01:03:10;;;;;;;6.65;3.42;;;;;;;11.68;100.00;100593.56;677210;28;1359;-44
2022/06/07 01:03:31;;;;;;;6.25;3.20;;;;;;;11.67;100.00;100602.28;678728;29;1515;-44
2022/06/07 01:03:52;;;;;;;5.20;3.30;;;;;;;11.64;100.00;100599.72;680504;28;1307;-44
2022/06/07 01:04:13;;;;;;;6.43;3.55;;;;;;;11.59;100.00;100597.16;681508;28;4305;-45
2022/06/07 01:04:34;;;;;;;6.50;3.80;;;;;;;11.57;100.00;100602.41;683903;28;1286;-45
2022/06/07 01:04:54;;;;;;;6.55;3.60;;;;;;;11.54;100.00;100599.81;685727;28;1409;-44
2022/06/07 01:05:15;;;;;;;6.05;3.50;;;;;;;11.57;100.00;100602.41;679977;28;1293;-44
2022/06/07 01:05:39;;;;;;;5.88;3.45;;;;;;;11.57;100.00;100597.19;679173;28;1265;-45
2022/06/07 01:10:43;;;;;;;5.32;3.63;;;;;;;11.56;100.00;100598.06;676694;29;2086;-45
2022/06/07 01:10:53;;;;;;;5.40;3.58;;;;;;;11.68;100.00;100604.03;683530;28;5026;-44
2022/06/07 01:11:17;;;;;;;6.25;3.47;;;;;;;11.71;100.00;100596.16;681551;28;1406;-44
2022/06/07 01:11:37;;;;;;;5.73;3.40;;;;;;;11.70;100.00;100600.53;678854;28;1211;-44
2022/06/07 01:11:58;;;;;;;5.82;3.40;;;;;;;11.70;100.00;100597.91;679025;28;1520;-45
2022/06/07 01:12:18;;;;;;;6.32;3.70;;;;;;;11.70;100.00;100597.91;676934;29;1533;-45
2022/06/07 01:12:39;;;;;;;5.53;3.40;;;;;;;11.73;100.00;100594.41;674420;29;1525;-45
2022/06/07 01:13:02;;;;;;;5.25;3.50;;;;;;;11.75;100.00;100601.34;678600;28;3678;-47
2022/06/07 01:13:30;;;;;;;6.20;3.45;;;;;;;11.77;100.00;100601.34;675916;29;4398;-44
2022/06/07 01:13:56;;;;;;;6.63;3.50;;;;;;;11.79;100.00;100602.16;675381;29;1508;-44
2022/06/07 01:14:23;;;;;;;5.82;3.63;;;;;;;11.75;100.00;100600.47;677084;29;1363;-44
2022/06/07 01:14:44;;;;;;;5.85;3.50;;;;;;;11.69;100.00;100596.16;678725;28;1408;-46
2022/06/07 01:15:05;;;;;;;5.97;3.55;;;;;;;11.65;100.00;100601.47;677520;29;1121;-44
2022/06/07 01:15:26;;;;;;;6.85;3.85;;;;;;;11.67;100.00;100604.91;681780;28;1156;-43
2022/06/07 01:15:49;;;;;;;5.55;3.55;;;;;;;11.69;100.00;100600.53;678726;28;1775;-43
2022/06/07 01:16:11;;;;;;;5.00;3.50;;;;;;;11.66;100.00;100606.69;679146;28;4477;-45
2022/06/07 01:16:37;;;;;;;5.00;3.70;;;;;;;11.67;100.00;100602.28;679268;28;1313;-43
2022/06/07 01:16:58;;;;;;;6.80;3.60;;;;;;;11.68;100.00;100598.81;679302;28;1263;-43
2022/06/07 01:17:19;;;;;;;4.90;3.50;;;;;;;11.71;100.00;100598.75;676286;29;1475;-43
2022/06/07 01:17:40;;;;;;;5.50;3.50;;;;;;;11.72;100.00;100600.50;673742;29;1915;-42
2022/06/07 01:18:01;;;;;;;6.82;3.45;;;;;;;11.73;100.00;100602.25;674274;29;1513;-43
2022/06/07 01:18:23;;;;;;;5.75;3.47;;;;;;;11.74;100.00;100599.63;675833;29;1864;-45
2022/06/07 01:18:44;;;;;;;6.18;3.67;;;;;;;11.75;100.00;100601.34;673688;29;1354;-43
2022/06/07 01:19:12;;;;;;;6.00;3.72;;;;;;;11.73;100.00;100610.09;670797;29;4357;-42
2022/06/07 01:19:34;;;;;;;5.70;3.45;;;;;;;11.74;100.00;100603.97;671926;29;1620;-43
2022/06/07 01:19:55;;;;;;;5.10;3.43;;;;;;;11.79;100.00;100601.31;672249;29;2289;-45
2022/06/07 01:20:16;;;;;;;6.00;3.40;;;;;;;11.83;100.00;100605.63;672528;29;1615;-42
2022/06/07 01:20:37;;;;;;;6.18;3.70;;;;;;;11.82;100.00;100607.38;674334;29;1260;-44
2022/06/07 01:21:14;;;;;;;5.93;3.60;;;;;;;11.84;100.00;100607.38;674055;29;1384;-45
2022/06/07 01:21:37;;;;;;;5.57;3.80;;;;;;;11.78;100.00;100610.91;676840;29;1316;-45
2022/06/07 01:22:00;;;;;;;5.75;3.58;;;;;;;11.78;100.00;100605.66;679465;28;1171;-46
2022/06/07 01:22:21;;;;;;;5.00;3.40;;;;;;;11.77;100.00;100598.72;678551;28;4458;-46
2022/06/07 01:22:42;;;;;;;5.50;3.23;;;;;;;11.79;100.00;100602.16;677879;28;1202;-45
2022/06/07 01:23:02;;;;;;;6.65;3.40;;;;;;;11.80;100.00;100600.44;676119;28;1121;-45
2022/06/07 01:23:23;;;;;;;6.70;3.60;;;;;;;11.77;100.00;100603.97;676456;29;1121;-46
2022/06/07 01:23:45;;;;;;;5.53;3.47;;;;;;;11.76;100.00;100603.06;677073;29;1318;-43
2022/06/07 01:24:06;;;;;;;6.20;3.50;;;;;;;11.79;100.00;100601.31;674193;29;1402;-43
2022/06/07 01:24:35;;;;;;;6.28;3.83;;;;;;;11.72;100.00;100601.38;676464;29;1177;-45
2022/06/07 01:24:59;;;;;;;5.80;3.85;;;;;;;11.70;100.00;100600.53;678700;28;2039;-45
2022/06/07 01:25:20;;;;;;;5.90;3.90;;;;;;;11.74;100.00;100598.72;678506;28;4336;-46
2022/06/07 01:25:41;;;;;;;5.80;3.60;;;;;;;11.74;100.00;100599.63;679849;28;1228;-44
2022/06/07 01:26:02;;;;;;;6.22;3.75;;;;;;;11.78;100.00;100594.34;681390;28;1210;-43
2022/06/07 01:26:23;;;;;;;5.30;3.50;;;;;;;11.83;100.00;100601.25;681366;28;1136;-45
2022/06/07 01:26:44;;;;;;;6.23;3.60;;;;;;;11.83;100.00;100601.25;680221;28;1452;-44
2022/06/07 01:27:06;;;;;;;5.60;3.72;;;;;;;11.82;100.00;100596.91;680445;28;1164;-44
2022/06/07 01:27:27;;;;;;;5.10;3.60;;;;;;;11.84;100.00;100597.75;681494;28;1269;-43
2022/06/07 01:27:47;;;;;;;6.22;3.70;;;;;;;11.86;100.00;100603.84;681454;28;1154;-43
2022/06/07 01:28:08;;;;;;;6.77;3.60;;;;;;;11.86;100.00;100603.84;676850;29;1180;-45
2022/06/07 01:28:28;;;;;;;5.40;3.50;;;;;;;11.89;100.00;100600.31;678116;28;4438;-44
2022/06/07 01:28:49;;;;;;;5.70;3.43;;;;;;;11.88;100.00;100602.09;678980;28;1728;-44
2022/06/07 01:29:10;;;;;;;5.45;3.42;;;;;;;11.88;100.00;100602.09;675431;29;1289;-44
2022/06/07 01:29:31;;;;;;;5.22;3.60;;;;;;;11.87;100.00;100600.34;676805;29;1245;-46
2022/06/07 01:29:52;;;;;;;5.07;3.55;;;;;;;11.88;100.00;100595.94;674989;29;1412;-47
2022/06/07 01:30:13;;;;;;;5.78;3.70;;;;;;;11.89;100.00;100602.94;676900;29;1152;-45
2022/06/07 01:30:33;;;;;;;6.53;3.50;;;;;;;11.89;100.00;100597.69;677668;29;1181;-45
2022/06/07 01:30:57;;;;;;;6.38;3.50;;;;;;;11.89;100.00;100600.31;679205;28;1315;-45
2022/06/07 01:31:18;;;;;;;5.63;3.53;;;;;;;11.90;100.00;100600.28;681024;28;4362;-46
2022/06/07 01:31:39;;;;;;;6.80;3.60;;;;;;;11.90;100.00;100597.69;682206;28;1407;-45
2022/06/07 01:31:59;;;;;;;5.20;3.38;;;;;;;11.91;100.00;100602.03;681374;28;1339;-43
2022/06/07 01:32:21;;;;;;;5.53;3.40;;;;;;;11.89;100.00;100598.59;678480;29;1370;-44
2022/06/07 01:32:42;;;;;;;4.95;3.50;;;;;;;11.89;100.00;100598.59;675728;29;1590;-43
2022/06/07 01:33:02;;;;;;;6.23;3.70;;;;;;;11.85;100.00;100603.84;676889;29;1157;-44
2022/06/07 01:33:22;;;;;;;5.60;3.60;;;;;;;11.81;100.00;100597.81;675529;29;1249;-46
2022/06/07 01:33:43;;;;;;;5.87;3.80;;;;;;;11.77;100.00;100601.34;677294;28;1369;-43
2022/06/07 01:34:04;;;;;;;5.82;3.85;;;;;;;11.74;100.00;100599.63;679845;28;1144;-45
2022/06/07 01:34:24;;;;;;;6.28;3.90;;;;;;;11.70;100.00;100602.25;680926;28;4413;-44
2022/06/07 01:34:45;;;;;;;6.80;3.90;;;;;;;11.66;100.00;100600.56;679353;28;1267;-45
2022/06/07 01:35:07;;;;;;;7.45;3.88;;;;;;;11.65;100.00;100601.47;677744;28;1304;-44
2022/06/07 01:35:28;;;;;;;6.40;3.58;;;;;;;11.68;100.00;100604.03;678335;28;1417;-45
2022/06/07 01:36:00;;;;;;;6.33;3.53;;;;;;;11.67;100.00;100597.94;677866;28;1125;-43
2022/06/07 01:36:20;;;;;;;5.78;3.50;;;;;;;11.74;100.00;100598.72;677470;28;1518;-46
2022/06/07 01:36:41;;;;;;;5.40;3.40;;;;;;;11.76;100.00;100604.84;678442;28;1487;-44
2022/06/07 01:37:03;;;;;;;5.57;3.20;;;;;;;11.72;100.00;100600.50;679019;28;1695;-45
2022/06/07 01:37:26;;;;;;;6.10;3.58;;;;;;;11.70;100.00;100600.53;678435;29;5416;-44
2022/06/07 01:37:47;;;;;;;5.18;3.55;;;;;;;11.66;100.00;100600.56;677973;28;1995;-44
2022/06/07 01:38:07;;;;;;;5.40;3.60;;;;;;;11.63;100.00;100606.72;675856;29;1462;-44
2022/06/07 01:38:31;;;;;;;6.20;3.67;;;;;;;11.59;100.00;100595.41;676126;29;1242;-44
2022/06/07 01:42:09;;;;;;;6.03;3.55;;;;;;;11.52;100.00;100591.09;681646;28;1133;-44
2022/06/07 01:42:31;;;;;;;6.55;3.70;;;;;;;11.54;100.00;100599.81;680558;28;1182;-45
2022/06/07 01:42:51;;;;;;;6.85;3.75;;;;;;;11.55;100.00;100598.06;678257;28;1447;-43
2022/06/07 01:43:11;;;;;;;6.23;3.60;;;;;;;11.52;100.00;100595.47;677203;29;5541;-43
2022/06/07 01:43:33;;;;;;;5.65;3.95;;;;;;;11.51;100.00;100599.84;677970;28;1269;-44
2022/06/07 01:43:54;;;;;;;5.05;3.50;;;;;;;11.53;100.00;100594.59;676676;29;1518;-46
2022/06/07 01:44:15;;;;;;;5.40;3.70;;;;;;;11.56;100.00;100598.06;676905;29;1177;-43
2022/06/07 01:44:41;;;;;;;5.60;3.75;;;;;;;11.58;100.00;100598.88;676964;29;1261;-45
2022/06/07 01:45:03;;;;;;;6.22;3.63;;;;;;;11.61;100.00;100597.13;678089;29;2234;-45
2022/06/07 01:45:25;;;;;;;5.10;3.60;;;;;;;11.57;100.00;100599.78;679402;28;1485;-44
2022/06/07 01:45:45;;;;;;;5.40;3.80;;;;;;;11.57;100.00;100602.41;679215;28;1180;-44
2022/06/07 01:46:06;;;;;;;5.95;3.90;;;;;;;11.51;100.00;100596.38;678773;28;1124;-43
2022/06/07 01:46:27;;;;;;;6.20;3.80;;;;;;;11.49;100.00;100596.38;678250;28;4524;-45
2022/06/07 01:46:49;;;;;;;6.00;3.90;;;;;;;11.49;100.00;100593.75;678860;28;1277;-44
2022/06/07 01:47:13;;;;;;;5.43;3.63;;;;;;;11.47;100.00;100592.91;678064;28;1356;-45
2022/06/07 01:47:38;;;;;;;5.60;3.80;;;;;;;11.46;100.00;100593.78;680357;28;1386;-44
2022/06/07 01:47:59;;;;;;;5.50;3.58;;;;;;;11.45;100.00;100596.41;676793;29;1587;-44
2022/06/07 01:48:20;;;;;;;6.03;3.90;;;;;;;11.44;100.00;100592.03;676016;29;1223;-45
2022/06/07 01:48:41;;;;;;;5.57;3.80;;;;;;;11.43;100.00;100590.34;674457;29;1616;-44
2022/06/07 01:49:01;;;;;;;5.33;3.60;;;;;;;11.44;100.00;100598.16;675093;29;1309;-45
2022/06/07 01:49:23;;;;;;;4.80;3.47;;;;;;;11.47;100.00;100594.66;677096;28;5019;-45
2022/06/07 01:49:44;;;;;;;5.60;3.80;;;;;;;11.49;100.00;100591.16;675391;29;1648;-45
2022/06/07 01:50:06;;;;;;;6.68;3.75;;;;;;;11.47;100.00;100592.91;677366;29;1241;-44
2022/06/07 01:50:27;;;;;;;6.63;3.83;;;;;;;11.46;100.00;100593.78;680687;28;1077;-44
2022/06/07 01:50:47;;;;;;;5.78;3.60;;;;;;;11.47;100.00;100595.50;678214;28;1261;-44
2022/06/07 01:51:09;;;;;;;6.00;3.95;;;;;;;11.45;100.00;100596.41;677962;28;2143;-44